Sumterville, Florida
Current Conditions -  °F | °C
As of 9:53 AM on Friday 24 Oct 2014 (Local Time) from KLEE Reporting Station
Clear Clear  
Wind Chill: 70°   Ceiling: Unl
Heat Index: 70°   Visibility: 10mi
Dew Point: 54°   Wind: 7mph
Humidity: 57%   Direction: 20°NNE
Pressure: 30.03"   Gusts: NA
Location:  28.75°N, 82.06°W
Report Text: KLEE 241353Z 02006KT 10SM CLR 21/12 A3003 RMK AO2 SLP169 T02110122
Loading
Personal Weather Stations






























Interactive Weather Map New forecast layout! Learn more

10-Day Weather Forecast

Advertisements
Track Severe Weather on mobile